Terminal Aerodrome Forecast
Issued by NWS

Home | Current Version | Previous Version | Text Only | Print | Product List | Glossary On
Versions: 1 2 3 4 5 6 7 8 9 10 11 12 13 14 15 16 17 18 19 20
000
FTUS44 KLZK 271133
TAFHRO
TAF
KHRO 271133Z 2712/2812 33007KT P6SM -RA VCTS SCT015CB OVC050
      TEMPO 2712/2714 VRB15G25KT 5SM -TSRA BR BKN025CB OVC040
     FM271500 19008G15KT P6SM VCSH BKN035 OVC050
     FM271800 27010G18KT P6SM BKN035 BKN080=

USA.gov is the U.S. government's official web portal to all federal, state and local government web resources and services.